Time;durP1;ratioP1;P1;durP2;ratioP2;P2;SDS_P1;SDS_P2;PMS_P1;PMS_P2;Temp;Humidity;BMP_temperature;BMP_pressure;BME280_temperature;BME280_humidity;BME280_pressure;Samples;Min_cycle;Max_cycle;Signal;HPM_P1;HPM_P2
2023/06/20 00:09:17;;;;;;;36.08;17.27;;;;;;;26.61;42.94;101617.59;21090224;28;20085;-59
2023/06/20 00:19:19;;;;;;;47.28;17.95;;;;;;;26.64;43.42;101649.84;21086767;28;20495;-58
2023/06/20 00:29:20;;;;;;;56.90;19.40;;;;;;;26.54;43.33;101650.00;21055932;28;20373;-57
2023/06/20 00:39:22;;;;;;;57.17;18.67;;;;;;;26.58;44.31;101673.53;21031676;28;20440;-58
2023/06/20 00:49:26;;;;;;;76.95;19.83;;;;;;;26.60;44.51;101688.91;21076325;28;20044;-59
2023/06/20 00:59:27;;;;;;;59.60;19.65;;;;;;;26.62;44.51;101688.63;21085205;28;20036;-59
2023/06/20 01:09:53;;;;;;;48.35;18.80;;;;;;;26.61;44.10;101695.34;21023454;28;20041;-58
2023/06/20 01:20:27;;;;;;;56.10;20.08;;;;;;;26.52;43.98;101694.34;21083403;28;20097;-59
2023/06/20 01:30:39;;;;;;;45.78;18.35;;;;;;;26.57;43.06;101705.50;21072278;28;20491;-58
2023/06/20 01:40:45;;;;;;;32.05;18.15;;;;;;;26.55;43.07;101722.66;21013672;28;20044;-58
2023/06/20 01:50:47;;;;;;;26.63;16.52;;;;;;;26.53;42.26;101738.16;21069517;28;20048;-58
2023/06/20 02:00:49;;;;;;;25.55;16.00;;;;;;;26.45;42.84;101733.19;21080122;28;20140;-59
2023/06/20 02:10:56;;;;;;;23.63;15.23;;;;;;;26.47;42.86;101739.31;21079779;28;20056;-57
2023/06/20 02:21:04;;;;;;;24.95;16.10;;;;;;;26.51;42.79;101740.41;21064494;28;20537;-59
2023/06/20 02:31:10;;;;;;;22.73;15.07;;;;;;;26.50;42.42;101750.78;21017480;28;20129;-58
2023/06/20 02:41:11;;;;;;;21.42;15.27;;;;;;;26.49;41.97;101754.75;21047168;28;20036;-57
2023/06/20 02:51:24;;;;;;;23.90;14.57;;;;;;;26.29;41.90;101747.34;21068223;28;20109;-59
2023/06/20 03:01:28;;;;;;;23.67;14.77;;;;;;;26.21;41.10;101748.03;21034953;28;20449;-58
2023/06/20 03:11:29;;;;;;;22.90;13.95;;;;;;;26.32;40.88;101772.03;21061184;28;20055;-59
2023/06/20 03:21:31;;;;;;;22.00;13.90;;;;;;;26.32;40.99;101772.03;21073563;28;20047;-58
2023/06/20 03:31:32;;;;;;;21.08;15.15;;;;;;;26.30;41.21;101779.09;21071093;28;20185;-59
2023/06/20 03:41:34;;;;;;;19.58;14.95;;;;;;;26.26;40.92;101781.63;21071476;28;20043;-57
2023/06/20 03:51:38;;;;;;;22.05;15.13;;;;;;;26.22;40.79;101782.53;21072443;28;20093;-57
2023/06/20 04:01:40;;;;;;;20.23;13.55;;;;;;;26.18;40.86;101787.91;21074119;28;20070;-59
2023/06/20 04:11:41;;;;;;;19.30;14.88;;;;;;;26.17;40.74;101797.44;21081818;28;20052;-59
2023/06/20 04:21:43;;;;;;;20.33;15.15;;;;;;;26.15;40.84;101802.50;21084677;28;20040;-58
2023/06/20 04:31:44;;;;;;;18.58;13.73;;;;;;;26.12;40.70;101791.06;21084451;28;20070;-59
2023/06/20 04:41:46;;;;;;;19.15;13.73;;;;;;;26.09;40.55;101798.91;21086377;28;20032;-59
2023/06/20 04:51:47;;;;;;;19.42;14.27;;;;;;;26.09;41.84;101796.13;21083339;28;20044;-58
2023/06/20 05:01:51;;;;;;;16.48;14.32;;;;;;;26.27;44.10;101791.72;21085717;28;20036;-58
2023/06/20 05:11:52;;;;;;;18.00;14.43;;;;;;;26.38;45.18;101800.84;21085375;28;20036;-58
2023/06/20 05:21:53;;;;;;;19.20;13.85;;;;;;;26.47;45.72;101789.84;21081832;28;20040;-57
2023/06/20 05:31:57;;;;;;;17.85;13.93;;;;;;;26.50;46.31;101792.06;21079919;28;20069;-57
2023/06/20 05:42:00;;;;;;;17.23;15.07;;;;;;;26.54;46.18;101798.75;21079191;28;20044;-58
2023/06/20 05:52:02;;;;;;;16.77;13.63;;;;;;;26.61;46.07;101788.81;21076851;28;20044;-59
2023/06/20 06:02:06;;;;;;;15.48;13.82;;;;;;;26.68;45.66;101796.91;21081589;28;20032;-57
2023/06/20 06:12:10;;;;;;;16.67;14.10;;;;;;;26.75;45.69;101805.78;21080411;28;20078;-58
2023/06/20 06:22:12;;;;;;;15.00;12.48;;;;;;;26.80;45.63;101799.25;21078823;28;20036;-59
2023/06/20 06:32:16;;;;;;;14.45;12.85;;;;;;;26.83;45.68;101805.13;21074339;28;20101;-59
2023/06/20 06:42:17;;;;;;;15.15;12.85;;;;;;;26.88;45.47;101798.59;21074944;28;20039;-59
2023/06/20 06:52:19;;;;;;;16.55;13.50;;;;;;;26.92;45.41;101804.44;21073838;28;20044;-57
2023/06/20 07:02:21;;;;;;;15.65;12.63;;;;;;;26.94;45.44;101810.59;21075010;28;20047;-58
2023/06/20 07:12:23;;;;;;;15.70;12.88;;;;;;;27.00;45.57;101809.41;21073728;28;20035;-57
2023/06/20 07:22:24;;;;;;;13.63;11.98;;;;;;;27.04;45.58;101799.25;21076409;28;20036;-56
2023/06/20 07:32:26;;;;;;;14.02;12.50;;;;;;;27.05;45.50;101801.72;21075750;28;20044;-56
2023/06/20 07:42:28;;;;;;;12.90;11.50;;;;;;;27.07;45.37;101802.25;21077050;28;20487;-56
2023/06/20 07:52:31;;;;;;;14.15;12.00;;;;;;;27.11;45.63;101803.34;21088749;28;20044;-57
2023/06/20 08:02:38;;;;;;;12.48;11.18;;;;;;;27.11;45.50;101816.56;21086660;28;20328;-57
2023/06/20 08:12:40;;;;;;;13.20;11.75;;;;;;;27.14;45.47;101806.72;21088458;28;20078;-58
2023/06/20 08:22:41;;;;;;;16.58;13.10;;;;;;;27.17;45.60;101820.13;21085248;28;20040;-56
2023/06/20 08:32:44;;;;;;;13.73;12.32;;;;;;;27.16;45.51;101819.31;21084650;28;20052;-57
2023/06/20 08:42:45;;;;;;;13.93;12.48;;;;;;;27.04;45.52;101804.84;21084759;28;20040;-57
2023/06/20 08:52:48;;;;;;;14.93;12.95;;;;;;;27.21;45.67;101841.69;21083265;28;20104;-58
2023/06/20 09:02:53;;;;;;;14.18;12.35;;;;;;;27.23;45.55;101842.25;21082426;28;20048;-57
2023/06/20 09:12:59;;;;;;;13.70;12.30;;;;;;;27.25;45.43;101845.59;21082700;28;20043;-59
2023/06/20 09:23:00;;;;;;;13.65;12.23;;;;;;;27.28;45.66;101847.81;21045597;28;20044;-57
2023/06/20 09:33:06;;;;;;;15.07;13.27;;;;;;;27.30;45.67;101876.41;21045447;28;20092;-58
2023/06/20 09:43:08;;;;;;;16.92;13.60;;;;;;;27.28;45.44;101883.50;21080714;28;20040;-58
2023/06/20 09:53:15;;;;;;;14.40;12.90;;;;;;;27.29;45.36;101891.63;21077088;28;20040;-57
2023/06/20 10:03:17;;;;;;;16.20;13.05;;;;;;;27.31;45.34;101905.38;21077630;28;20047;-58
2023/06/20 10:13:19;;;;;;;13.70;12.13;;;;;;;27.31;45.34;101911.84;21077130;28;20467;-58
2023/06/20 10:23:29;;;;;;;15.88;14.05;;;;;;;27.29;45.44;101919.72;21072465;28;20047;-58
2023/06/20 10:33:36;;;;;;;14.00;12.50;;;;;;;27.30;45.39;101935.44;21074651;28;20052;-58
2023/06/20 10:43:51;;;;;;;14.10;12.60;;;;;;;27.30;45.38;101955.13;21077373;28;20071;-58
2023/06/20 10:54:20;;;;;;;14.70;13.18;;;;;;;27.27;45.49;101957.72;21076378;28;20105;-58
2023/06/20 11:04:25;;;;;;;15.48;13.30;;;;;;;27.35;45.27;101963.50;21074266;28;20097;-59
2023/06/20 11:14:26;;;;;;;14.63;13.13;;;;;;;27.35;45.33;101974.75;21075248;28;20036;-58
2023/06/20 11:24:29;;;;;;;13.98;12.57;;;;;;;27.28;45.24;101957.41;21089737;28;20036;-58
2023/06/20 11:34:30;;;;;;;15.32;13.45;;;;;;;27.35;45.14;101974.75;21092278;28;20544;-59
2023/06/20 11:44:32;;;;;;;14.20;12.73;;;;;;;27.37;45.32;101982.88;21091233;28;20094;-58
2023/06/20 11:54:50;;;;;;;13.10;11.50;;;;;;;27.33;45.27;101988.25;21089554;28;20047;-58
2023/06/20 12:04:58;;;;;;;14.25;12.10;;;;;;;27.38;45.18;101998.59;21006586;28;20125;-58
2023/06/20 12:15:00;;;;;;;15.05;12.55;;;;;;;27.40;44.96;102009.53;21087104;28;20044;-57
2023/06/20 12:25:03;;;;;;;15.35;12.20;;;;;;;27.41;44.96;102002.78;21086379;28;20040;-56
2023/06/20 12:35:04;;;;;;;14.40;12.85;;;;;;;27.42;45.14;102021.31;21079687;28;20133;-56
2023/06/20 12:45:10;;;;;;;26.50;13.27;;;;;;;27.25;46.40;102002.94;21086546;28;20040;-57
2023/06/20 12:55:12;;;;;;;22.08;14.68;;;;;;;27.21;46.40;101998.22;21084944;28;20113;-57
2023/06/20 13:05:13;;;;;;;22.88;13.13;;;;;;;27.19;46.30;101987.28;21085795;28;20545;-58
2023/06/20 13:15:19;;;;;;;20.52;12.15;;;;;;;27.30;46.32;102011.31;21082847;28;20048;-59
2023/06/20 13:25:20;;;;;;;18.23;12.90;;;;;;;27.31;46.06;102017.81;21083727;28;20040;-59
2023/06/20 13:35:23;;;;;;;18.63;11.80;;;;;;;27.28;46.23;102013.59;21083114;28;20787;-57
2023/06/20 13:45:24;;;;;;;22.75;11.75;;;;;;;27.23;46.53;102008.03;21082515;28;20036;-57
2023/06/20 13:55:25;;;;;;;17.13;11.10;;;;;;;27.21;46.55;102001.88;21082181;28;20406;-58
2023/06/20 14:05:27;;;;;;;19.30;11.65;;;;;;;27.18;46.57;102019.34;21081694;28;20040;-57
2023/06/20 14:15:28;;;;;;;15.85;10.70;;;;;;;27.21;46.50;102017.91;21079308;28;20051;-57
2023/06/20 14:25:30;;;;;;;18.30;11.50;;;;;;;27.15;46.65;102016.28;21072540;28;20036;-58
2023/06/20 14:35:31;;;;;;;16.23;11.82;;;;;;;27.18;46.59;102022.16;21078964;28;20040;-58
2023/06/20 14:45:32;;;;;;;18.05;11.90;;;;;;;27.19;46.64;102040.69;21078457;28;20047;-56
2023/06/20 14:55:34;;;;;;;15.73;12.10;;;;;;;27.17;46.61;102040.16;21077692;28;20487;-59
2023/06/20 15:05:38;;;;;;;16.10;11.65;;;;;;;27.17;46.65;102040.16;21076911;28;20079;-58
2023/06/20 15:15:39;;;;;;;18.48;12.68;;;;;;;27.17;46.68;102034.53;21075008;28;20043;-58
2023/06/20 15:25:41;;;;;;;16.60;13.48;;;;;;;27.18;46.92;102036.22;21017592;28;20040;-56
2023/06/20 15:35:44;;;;;;;21.50;13.85;;;;;;;27.09;47.06;102009.91;21074623;28;20102;-58
2023/06/20 15:45:45;;;;;;;17.88;13.50;;;;;;;27.16;46.64;102027.22;21075527;28;20544;-58
2023/06/20 15:55:53;;;;;;;19.17;14.45;;;;;;;27.10;46.73;102018.03;21074155;28;20039;-58
2023/06/20 16:05:54;;;;;;;18.65;13.10;;;;;;;27.18;46.65;102030.59;21078388;28;20097;-59
2023/06/20 16:15:56;;;;;;;17.70;13.48;;;;;;;27.19;46.60;102032.25;21088350;28;20051;-58
2023/06/20 16:25:57;;;;;;;18.10;13.35;;;;;;;27.19;46.52;102025.81;21087766;28;20036;-58
2023/06/20 16:35:59;;;;;;;19.70;13.15;;;;;;;27.21;46.61;102018.72;21087291;28;20105;-57
2023/06/20 16:46:00;;;;;;;18.10;13.15;;;;;;;27.23;46.24;102019.28;21087846;28;20336;-57
2023/06/20 16:56:02;;;;;;;19.25;14.00;;;;;;;27.19;46.04;102021.00;21085955;28;20047;-59
2023/06/20 17:06:08;;;;;;;20.67;13.57;;;;;;;27.22;46.26;102013.97;21084424;28;20040;-63
2023/06/20 17:16:10;;;;;;;20.15;12.77;;;;;;;27.30;46.10;102016.94;21084003;28;20051;-58
2023/06/20 17:26:11;;;;;;;20.35;13.85;;;;;;;27.26;46.50;102015.91;21084308;28;20047;-58
2023/06/20 17:36:13;;;;;;;19.15;13.40;;;;;;;27.31;45.75;102017.81;21082932;28;20101;-57
2023/06/20 17:46:14;;;;;;;18.15;13.07;;;;;;;27.33;45.62;102021.97;21082611;28;20040;-57
2023/06/20 17:56:16;;;;;;;13.57;12.07;;;;;;;27.38;45.65;102017.44;21079535;28;20402;-59
2023/06/20 18:06:21;;;;;;;14.80;12.77;;;;;;;27.39;45.72;102011.50;21081027;28;20036;-59
2023/06/20 18:16:22;;;;;;;15.15;12.90;;;;;;;27.39;45.88;101993.81;21079020;28;20108;-59
2023/06/20 18:26:24;;;;;;;19.60;12.55;;;;;;;27.46;45.56;102013.97;21077536;28;20380;-59
2023/06/20 18:36:25;;;;;;;29.75;13.13;;;;;;;27.42;43.56;101996.03;21078132;28;20043;-57
2023/06/20 18:46:26;;;;;;;25.58;12.95;;;;;;;27.29;42.75;101981.53;21078079;28;20085;-58
2023/06/20 18:56:28;;;;;;;22.30;13.27;;;;;;;27.18;42.82;101988.44;21074884;28;20056;-58
2023/06/20 19:06:32;;;;;;;21.95;13.93;;;;;;;27.12;42.53;101981.19;21075414;28;20100;-58
2023/06/20 19:16:36;;;;;;;18.75;13.27;;;;;;;27.05;42.46;101975.06;21076450;28;20048;-57
2023/06/20 19:26:37;;;;;;;17.75;12.73;;;;;;;27.04;42.38;101974.25;21070767;28;20040;-57
2023/06/20 19:36:39;;;;;;;14.93;12.20;;;;;;;26.98;42.21;101974.56;21075397;28;20097;-61
2023/06/20 19:46:42;;;;;;;16.25;12.13;;;;;;;26.94;42.18;101967.88;21090293;28;20092;-58
2023/06/20 19:56:43;;;;;;;16.40;12.68;;;;;;;26.85;41.83;101948.06;21089078;28;20074;-58
2023/06/20 20:06:45;;;;;;;19.83;12.23;;;;;;;26.85;42.06;101951.69;21087071;28;20090;-58
2023/06/20 20:16:47;;;;;;;24.65;13.90;;;;;;;27.00;44.14;101935.81;21085614;28;20479;-58
2023/06/20 20:26:52;;;;;;;23.33;13.43;;;;;;;27.09;45.10;101936.84;21086690;28;20070;-56
2023/06/20 20:36:53;;;;;;;22.40;13.85;;;;;;;27.08;45.86;101918.28;21063007;28;20044;-58
2023/06/20 20:46:54;;;;;;;21.25;13.23;;;;;;;27.04;45.81;101894.75;21067530;28;20035;-59
2023/06/20 20:56:56;;;;;;;22.27;13.13;;;;;;;27.14;46.30;101917.13;21081813;28;20047;-59
2023/06/20 21:06:57;;;;;;;25.92;13.18;;;;;;;27.14;46.52;101911.50;21077667;28;20064;-58
2023/06/20 21:16:58;;;;;;;524.15;66.93;;;;;;;27.17;46.54;101916.53;21079459;28;20040;-57
2023/06/20 21:27:01;;;;;;;465.85;63.33;;;;;;;27.21;46.42;101911.94;21080424;28;20456;-56
2023/06/20 21:37:04;;;;;;;385.35;56.13;;;;;;;27.26;46.20;101919.47;21080807;28;20048;-58
2023/06/20 21:47:05;;;;;;;297.20;44.67;;;;;;;27.26;46.24;101925.97;21082351;28;20105;-58
2023/06/20 21:57:07;;;;;;;261.45;39.47;;;;;;;27.26;46.33;101928.78;21081264;28;20136;-57
2023/06/20 22:07:09;;;;;;;182.00;35.97;;;;;;;27.28;46.11;101922.84;21079909;28;20032;-56
2023/06/20 22:17:10;;;;;;;181.15;32.30;;;;;;;27.31;46.06;101925.91;21079555;28;20483;-55
2023/06/20 22:27:12;;;;;;;123.35;26.00;;;;;;;27.31;46.29;101951.19;21079032;28;20097;-57
2023/06/20 22:37:16;;;;;;;119.38;25.58;;;;;;;27.18;45.87;101932.25;21078699;28;20097;-55
2023/06/20 22:47:17;;;;;;;101.30;24.88;;;;;;;27.29;45.87;101964.69;21077995;28;20070;-56
2023/06/20 22:57:21;;;;;;;74.60;21.80;;;;;;;27.34;45.96;101973.06;21077281;28;20483;-58
2023/06/20 23:07:23;;;;;;;77.60;19.20;;;;;;;27.40;45.80;101989.84;21077703;28;20032;-57
2023/06/20 23:17:24;;;;;;;56.90;17.02;;;;;;;27.39;45.68;101989.00;21076607;28;20044;-58
2023/06/20 23:27:26;;;;;;;64.95;18.02;;;;;;;27.41;45.81;102005.59;21076575;28;20040;-57
2023/06/20 23:37:27;;;;;;;50.53;16.75;;;;;;;27.44;45.69;102010.59;21076154;28;20032;-57
2023/06/20 23:47:30;;;;;;;56.80;15.77;;;;;;;27.40;45.45;102017.97;21075269;28;20043;-56
2023/06/20 23:57:31;;;;;;;44.45;14.63;;;;;;;27.46;45.27;102025.22;21074735;28;20040;-57
